createdAt,value
2022-10-19T00:11:03.860Z,50.03
2022-10-19T00:13:59.983Z,49.87
2022-10-19T00:16:14.435Z,50.13
2022-10-19T00:18:18.228Z,50.05
2022-10-19T00:20:20.339Z,50.39
2022-10-19T00:38:56.483Z,50.38
2022-10-19T00:39:15.791Z,50.15
2022-10-19T00:39:28.682Z,50.17
2022-10-19T00:39:42.024Z,50.05
2022-10-19T00:39:57.394Z,50.14
2022-10-19T00:40:12.368Z,50.26
2022-10-19T00:40:25.988Z,49.86
2022-10-19T00:40:40.342Z,50.09
2022-10-19T00:40:53.474Z,50.24
2022-10-19T00:41:28.755Z,50.14
2022-10-19T00:41:44.080Z,49.97
2022-10-19T00:42:16.851Z,50.17
2022-10-19T00:42:30.108Z,49.80
2022-10-19T00:42:43.366Z,49.53
2022-10-19T00:42:57.159Z,49.91
2022-10-19T00:43:14.194Z,49.80
2022-10-19T00:43:29.018Z,49.64
2022-10-19T00:44:01.312Z,49.70
2022-10-19T00:44:30.884Z,49.89
2022-10-19T00:44:44.940Z,49.56
2022-10-19T00:45:02.337Z,50.01
2022-10-19T00:45:19.108Z,50.01
2022-10-19T00:45:33.237Z,50.14
2022-10-19T00:45:46.162Z,50.18
2022-10-19T00:45:59.023Z,50.16
2022-10-19T00:46:15.781Z,50.08
2022-10-19T00:46:34.451Z,49.78
2022-10-19T00:46:50.696Z,49.78
2022-10-19T00:47:23.979Z,49.62
2022-10-19T00:47:38.913Z,50.14
2022-10-19T00:47:52.166Z,50.29
2022-10-19T00:48:27.868Z,49.66
2022-10-19T00:48:41.289Z,50.16
2022-10-19T00:49:01.279Z,50.10
2022-10-19T00:49:24.208Z,50.05
2022-10-19T00:49:39.893Z,49.90
2022-10-19T00:49:58.105Z,49.94
2022-10-19T00:50:11.514Z,49.96
2022-10-19T00:50:24.356Z,49.89
2022-10-19T00:50:57.212Z,49.82
2022-10-19T00:51:11.156Z,49.49
2022-10-19T00:51:25.524Z,49.43
2022-10-19T00:51:44.456Z,49.83
2022-10-19T00:52:02.063Z,49.82
2022-10-19T00:52:16.538Z,49.88
2022-10-19T00:52:29.503Z,49.82
2022-10-19T00:52:42.860Z,49.67
2022-10-19T00:52:59.659Z,49.73
2022-10-19T00:53:12.786Z,49.75
2022-10-19T00:53:27.419Z,49.89
2022-10-19T00:53:40.351Z,49.76
2022-10-19T00:53:53.440Z,49.82
2022-10-19T00:54:07.069Z,49.75
2022-10-19T00:54:20.851Z,49.64
2022-10-19T00:54:34.267Z,50.00
2022-10-19T00:54:49.018Z,49.97
2022-10-19T00:55:01.899Z,49.92
2022-10-19T00:55:15.058Z,49.88
2022-10-19T00:55:28.154Z,49.79
2022-10-19T00:55:41.225Z,49.80
2022-10-19T00:55:54.621Z,49.72
2022-10-19T00:56:10.407Z,49.72
2022-10-19T00:56:23.721Z,49.69
2022-10-19T00:56:38.697Z,49.57
2022-10-19T00:56:52.690Z,49.60
2022-10-19T00:57:05.922Z,49.64
2022-10-19T00:57:22.596Z,49.78
2022-10-19T00:57:36.778Z,49.64
2022-10-19T00:57:52.621Z,49.71
2022-10-19T00:58:05.927Z,49.81
2022-10-19T00:58:19.499Z,49.69
2022-10-19T00:58:32.960Z,49.70
2022-10-19T00:59:05.944Z,49.75
2022-10-19T00:59:20.097Z,49.76
2022-10-19T00:59:32.972Z,49.94
2022-10-19T00:59:45.977Z,50.04
2022-10-19T00:59:59.323Z,50.05
2022-10-19T01:00:12.607Z,50.06
2022-10-19T01:00:26.271Z,49.90
2022-10-19T01:00:40.361Z,49.95
2022-10-19T01:00:54.026Z,49.49
2022-10-19T01:01:26.871Z,49.53
2022-10-19T01:01:40.071Z,49.93
2022-10-19T01:01:56.857Z,49.78
2022-10-19T01:02:10.738Z,50.03
2022-10-19T01:02:23.532Z,49.87
2022-10-19T01:02:36.706Z,49.85
2022-10-19T01:02:49.725Z,49.82
2022-10-19T01:03:04.787Z,50.19
2022-10-19T01:03:19.108Z,50.13
2022-10-19T01:03:32.540Z,50.11
2022-10-19T01:03:47.588Z,50.10
2022-10-19T01:04:01.049Z,50.28
2022-10-19T01:04:14.320Z,50.41
2022-10-19T01:04:27.252Z,50.25
2022-10-19T01:04:42.338Z,50.26
2022-10-19T01:04:58.553Z,50.12
2022-10-19T01:05:11.822Z,50.40
2022-10-19T01:05:24.865Z,50.19
2022-10-19T01:05:45.746Z,49.97
2022-10-19T01:05:58.995Z,50.17
2022-10-19T01:06:13.383Z,50.08
2022-10-19T01:06:26.680Z,50.26
2022-10-19T01:06:39.794Z,50.26
2022-10-19T01:06:55.577Z,50.30
2022-10-19T01:07:08.528Z,50.33
2022-10-19T01:07:21.399Z,50.33
2022-10-19T01:07:34.815Z,50.18
2022-10-19T01:07:48.187Z,49.98
2022-10-19T01:08:06.562Z,50.31
2022-10-19T01:08:19.399Z,49.93
2022-10-19T01:08:32.875Z,50.00
2022-10-19T01:08:46.144Z,50.25
2022-10-19T01:08:58.937Z,50.12
2022-10-19T01:09:12.238Z,50.53
2022-10-19T01:09:25.530Z,50.30
2022-10-19T01:09:38.464Z,50.19
2022-10-19T01:46:38.904Z,49.76
2022-10-19T01:47:03.279Z,49.76
2022-10-19T01:47:26.200Z,50.05
2022-10-19T01:47:43.133Z,51.04
2022-10-19T01:48:15.778Z,50.95
2022-10-19T01:48:30.772Z,50.69
2022-10-19T01:48:52.189Z,50.84
2022-10-19T01:49:29.634Z,51.57
2022-10-19T01:50:09.651Z,51.78
2022-10-19T01:50:47.797Z,51.96
2022-10-19T01:51:06.420Z,51.57
2022-10-19T01:51:27.061Z,51.33
2022-10-19T01:51:43.081Z,51.12
2022-10-19T01:52:13.297Z,51.06
2022-10-19T01:52:26.893Z,50.66
2022-10-19T01:52:40.870Z,50.77
2022-10-19T01:52:53.813Z,50.70
2022-10-19T01:53:09.598Z,50.90
2022-10-19T01:54:39.881Z,51.70
2022-10-19T01:54:56.291Z,52.35
2022-10-19T01:55:10.893Z,51.94
2022-10-19T01:55:24.869Z,51.84
2022-10-19T01:55:39.317Z,52.00
2022-10-19T01:55:52.411Z,51.61
2022-10-19T01:56:05.496Z,51.54
2022-10-19T01:56:38.191Z,51.09
2022-10-19T01:56:51.229Z,51.93
2022-10-19T01:57:05.413Z,51.86
2022-10-19T01:57:21.828Z,52.17
2022-10-19T01:57:57.349Z,52.14
2022-10-19T01:58:17.742Z,51.66
2022-10-19T01:58:32.917Z,52.10
2022-10-19T01:58:46.814Z,52.39
2022-10-19T01:59:18.976Z,52.57
2022-10-19T01:59:34.147Z,52.29
2022-10-19T01:59:47.527Z,51.83
2022-10-19T02:00:07.308Z,51.31
2022-10-19T02:00:21.284Z,51.24
2022-10-19T02:00:35.644Z,51.32
2022-10-19T02:00:51.280Z,51.35
2022-10-19T02:01:30.414Z,51.21
2022-10-19T02:01:45.185Z,51.03
2022-10-19T02:01:58.004Z,51.26
2022-10-19T02:02:15.466Z,51.19
2022-10-19T02:02:49.599Z,50.97
2022-10-19T02:03:04.566Z,50.73
2022-10-19T02:03:17.694Z,51.22
2022-10-19T02:03:30.808Z,50.70
2022-10-19T02:03:44.086Z,50.46
2022-10-19T02:03:57.317Z,50.53
2022-10-19T02:04:17.467Z,50.48
2022-10-19T02:05:07.161Z,50.70
2022-10-19T02:05:39.989Z,50.71
2022-10-19T02:05:53.453Z,50.49
2022-10-19T02:06:15.956Z,50.25
2022-10-19T02:06:28.856Z,50.28
2022-10-19T02:06:57.617Z,50.34
2022-10-19T02:07:11.462Z,50.65
2022-10-19T02:07:24.358Z,50.71
2022-10-19T02:07:38.017Z,50.85
2022-10-19T02:07:54.908Z,50.67
2022-10-19T02:08:31.727Z,50.74
2022-10-19T02:08:47.673Z,51.13
2022-10-19T02:09:00.540Z,51.20
2022-10-19T02:09:18.324Z,51.10
2022-10-19T02:09:51.061Z,51.09
2022-10-19T02:10:04.392Z,50.68
2022-10-19T02:10:18.570Z,50.14
2022-10-19T02:10:40.188Z,50.33
2022-10-19T02:11:12.382Z,50.55
2022-10-19T02:11:25.685Z,50.71
2022-10-19T02:12:01.022Z,50.79
2022-10-19T02:12:14.294Z,50.63
2022-10-19T02:12:29.505Z,50.69
2022-10-19T02:13:02.235Z,50.62
2022-10-19T02:13:15.396Z,50.48
2022-10-19T02:13:30.541Z,50.33
2022-10-19T02:13:43.367Z,50.50
2022-10-19T02:34:01.851Z,51.14
2022-10-19T02:34:15.053Z,51.46
2022-10-19T02:34:34.185Z,51.42
2022-10-19T02:35:06.300Z,51.71
2022-10-19T02:35:19.104Z,52.02
2022-10-19T02:35:35.825Z,51.77
2022-10-19T02:36:08.788Z,51.69
2022-10-19T02:36:22.132Z,51.04
2022-10-19T02:36:35.434Z,51.04
2022-10-19T02:36:52.195Z,51.05
2022-10-19T02:37:07.213Z,50.93
2022-10-19T02:37:22.136Z,50.90
2022-10-19T02:37:40.495Z,50.78
2022-10-19T02:37:58.089Z,50.77
2022-10-19T02:38:13.410Z,50.74
2022-10-19T02:38:27.347Z,50.92
2022-10-19T02:38:42.357Z,50.56
2022-10-19T02:38:56.598Z,50.63
2022-10-19T02:39:18.614Z,50.68
2022-10-19T02:39:32.001Z,51.09
2022-10-19T02:39:54.206Z,50.92
2022-10-19T02:40:09.559Z,50.90
2022-10-19T02:40:23.227Z,51.01
2022-10-19T02:40:39.725Z,50.86
2022-10-19T02:41:06.479Z,50.85
2022-10-19T02:42:29.426Z,52.03
2022-10-19T02:42:46.273Z,51.79
2022-10-19T02:43:01.963Z,51.50
2022-10-19T02:43:15.322Z,51.60
2022-10-19T02:43:51.341Z,51.43
2022-10-19T02:44:08.113Z,50.87
2022-10-19T02:44:28.975Z,50.83
2022-10-19T02:44:50.854Z,50.85
2022-10-19T02:45:18.590Z,50.97
2022-10-19T02:45:36.680Z,51.16
2022-10-19T02:46:01.383Z,51.09
2022-10-19T02:46:21.551Z,50.86
2022-10-19T02:46:49.841Z,51.00
2022-10-19T02:54:15.103Z,50.82
2022-10-19T02:54:28.477Z,50.64
2022-10-19T02:54:43.616Z,50.64
2022-10-19T02:54:56.461Z,50.73
2022-10-19T02:55:14.413Z,50.96
2022-10-19T02:55:29.165Z,51.40
2022-10-19T02:55:42.516Z,51.63
2022-10-19T02:55:56.434Z,51.83
2022-10-19T02:56:31.127Z,51.82
2022-10-19T02:56:44.802Z,51.43
2022-10-19T02:56:58.912Z,51.43
2022-10-19T02:57:19.735Z,51.44
2022-10-19T02:57:32.922Z,51.80
2022-10-19T02:57:46.321Z,52.04
2022-10-19T02:57:59.826Z,52.14
2022-10-19T02:58:12.840Z,52.24
2022-10-19T02:58:26.007Z,52.15
2022-10-19T02:58:39.012Z,52.01
2022-10-19T02:58:56.026Z,51.87
2022-10-19T02:59:09.390Z,51.61
2022-10-19T02:59:22.849Z,51.49
2022-10-19T02:59:36.524Z,51.54
2022-10-19T02:59:50.565Z,51.77
2022-10-19T03:00:05.553Z,51.84
2022-10-19T03:00:38.311Z,51.98
2022-10-19T03:00:51.356Z,51.77
2022-10-19T03:01:04.229Z,51.71
2022-10-19T03:01:35.672Z,51.59
2022-10-19T03:01:49.394Z,51.61
2022-10-19T03:02:04.496Z,51.34
2022-10-19T03:02:18.318Z,51.20
2022-10-19T03:02:31.688Z,51.23
2022-10-19T03:02:44.547Z,51.50
2022-10-19T03:02:57.414Z,51.59
2022-10-19T03:03:10.761Z,51.61
2022-10-19T03:03:24.811Z,51.79
2022-10-19T03:03:37.860Z,52.10
2022-10-19T03:03:58.725Z,52.16
2022-10-19T03:04:11.770Z,51.83
2022-10-19T03:27:29.631Z,52.14
2022-10-19T03:27:42.513Z,52.05
2022-10-19T03:27:55.928Z,51.90
2022-10-19T03:28:09.766Z,51.88
2022-10-19T03:28:24.745Z,51.80
2022-10-19T03:28:37.878Z,51.87
2022-10-19T03:28:51.744Z,51.85
2022-10-19T03:29:24.495Z,51.65
2022-10-19T03:29:39.638Z,51.67
2022-10-19T03:30:12.760Z,51.61
2022-10-19T03:30:25.662Z,51.61
2022-10-19T03:30:38.749Z,51.50
2022-10-19T03:31:07.855Z,51.42
2022-10-19T03:31:21.635Z,51.53
2022-10-19T03:31:34.767Z,51.46
2022-10-19T03:31:47.977Z,51.46
2022-10-19T03:32:01.165Z,51.42
2022-10-19T03:32:15.869Z,51.34
2022-10-19T03:32:29.068Z,51.58
2022-10-19T03:32:42.255Z,51.47
2022-10-19T03:32:55.430Z,51.42
2022-10-19T03:33:28.160Z,51.42
2022-10-19T03:33:43.243Z,51.44
2022-10-19T03:34:02.221Z,51.41
2022-10-19T03:34:15.277Z,51.35
2022-10-19T03:34:28.143Z,51.35
2022-10-19T03:34:42.027Z,51.41
2022-10-19T03:34:55.082Z,51.28
2022-10-19T03:35:08.279Z,51.29
2022-10-19T03:35:25.503Z,51.25
2022-10-19T03:35:40.455Z,51.11
2022-10-19T03:36:13.493Z,51.06
2022-10-19T03:36:28.501Z,51.04
2022-10-19T03:36:41.831Z,50.92
2022-10-19T03:36:59.505Z,50.96
2022-10-19T03:37:13.673Z,50.91
2022-10-19T03:37:46.410Z,51.04
2022-10-19T03:38:03.179Z,51.01
2022-10-19T03:38:35.922Z,50.93
2022-10-19T03:38:51.096Z,50.91
2022-10-19T03:39:12.722Z,50.81
2022-10-19T03:39:26.021Z,50.88
2022-10-19T03:39:43.285Z,50.78
2022-10-19T03:39:56.306Z,50.92
2022-10-19T03:40:11.368Z,50.96
2022-10-19T03:40:24.736Z,50.99
2022-10-19T03:40:38.026Z,50.88
2022-10-19T03:41:07.894Z,51.00
2022-10-19T03:41:22.101Z,50.96
2022-10-19T03:41:36.191Z,50.95
2022-10-19T03:41:49.020Z,50.97
2022-10-19T03:42:18.352Z,50.96
2022-10-19T03:42:52.233Z,50.89
2022-10-19T03:43:05.071Z,50.68
2022-10-19T03:43:18.377Z,50.63
2022-10-19T03:43:51.436Z,50.63
2022-10-19T03:44:24.143Z,50.86
2022-10-19T03:44:36.946Z,50.75
2022-10-19T03:44:54.039Z,50.79
2022-10-19T03:45:16.104Z,50.85
2022-10-19T03:45:48.837Z,50.90
2022-10-19T03:46:01.943Z,50.84
2022-10-19T03:46:23.546Z,50.73
2022-10-19T03:46:36.558Z,50.69
2022-10-19T03:46:49.396Z,50.65
2022-10-19T03:47:02.235Z,50.82
2022-10-19T03:47:15.049Z,50.80
2022-10-19T03:47:27.819Z,50.98
2022-10-19T03:47:40.682Z,50.96
2022-10-19T03:47:53.497Z,51.03
2022-10-19T03:48:06.596Z,50.95
2022-10-19T03:48:19.432Z,51.07
2022-10-19T03:48:33.306Z,51.20
2022-10-19T03:48:46.159Z,51.33
2022-10-19T03:48:58.970Z,51.27
2022-10-19T03:49:11.895Z,51.23
2022-10-19T03:49:24.705Z,51.30
2022-10-19T03:49:39.571Z,51.36
2022-10-19T03:49:53.367Z,51.49
2022-10-19T03:50:06.761Z,51.47
2022-10-19T03:50:20.703Z,51.35
2022-10-19T03:50:33.530Z,51.40
2022-10-19T03:50:46.389Z,51.60
2022-10-19T03:51:09.407Z,51.65
2022-10-19T03:51:28.617Z,51.99
2022-10-19T03:51:41.655Z,52.00
2022-10-19T03:51:54.471Z,52.11
2022-10-19T03:52:09.300Z,52.10
2022-10-19T03:52:22.165Z,52.40
2022-10-19T03:52:35.027Z,52.30
2022-10-19T03:52:49.651Z,52.31
2022-10-19T03:53:17.060Z,52.48
2022-10-19T03:53:33.118Z,52.63
2022-10-19T03:53:46.643Z,52.62
2022-10-19T03:54:05.335Z,52.67
2022-10-19T03:54:18.181Z,52.86
2022-10-19T03:54:31.000Z,52.65
2022-10-19T03:54:44.075Z,52.83
2022-10-19T03:54:56.968Z,52.78
2022-10-19T03:55:10.614Z,52.71
2022-10-19T03:55:23.505Z,52.82
2022-10-19T03:55:36.326Z,52.90
2022-10-19T03:55:49.149Z,52.93
2022-10-19T03:56:05.926Z,53.04
2022-10-19T03:56:19.817Z,52.94
2022-10-19T03:56:32.826Z,52.80
2022-10-19T03:56:45.790Z,52.89
2022-10-19T03:56:58.619Z,52.92
2022-10-19T03:57:11.636Z,52.91
2022-10-19T03:57:24.507Z,52.93
2022-10-19T03:57:37.868Z,53.04
2022-10-19T03:57:50.674Z,53.06
2022-10-19T03:58:03.593Z,52.90
2022-10-19T03:58:16.411Z,52.84
2022-10-19T03:58:29.497Z,52.80
2022-10-19T03:58:42.975Z,52.80
2022-10-19T03:58:56.494Z,52.70
2022-10-19T03:59:12.289Z,52.71
2022-10-19T03:59:25.125Z,52.71
2022-10-19T03:59:37.974Z,52.67
2022-10-19T03:59:50.801Z,52.52
2022-10-19T04:00:07.201Z,52.55
2022-10-19T04:00:20.086Z,52.50
2022-10-19T04:00:32.963Z,52.60
2022-10-19T04:00:45.844Z,52.52
2022-10-19T04:00:58.815Z,52.47
2022-10-19T04:01:25.359Z,52.44
2022-10-19T04:01:40.254Z,52.50
2022-10-19T04:01:55.226Z,52.47
2022-10-19T04:02:09.188Z,52.48
2022-10-19T04:02:25.934Z,52.44
2022-10-19T04:02:39.046Z,52.42
2022-10-19T04:02:51.935Z,52.37
2022-10-19T04:03:05.083Z,52.58
2022-10-19T04:03:18.274Z,52.42
2022-10-19T04:03:37.086Z,52.31
2022-10-19T04:03:56.045Z,52.31
2022-10-19T04:04:16.271Z,52.25
2022-10-19T04:04:29.586Z,52.19
2022-10-19T04:04:42.485Z,52.07
2022-10-19T04:04:55.536Z,51.91
2022-10-19T04:05:46.852Z,51.86
2022-10-19T04:06:10.687Z,51.90
2022-10-19T04:06:29.084Z,51.94
2022-10-19T04:06:44.705Z,51.89
2022-10-19T04:06:57.546Z,51.83
2022-10-19T04:07:10.810Z,51.76
2022-10-19T04:07:24.555Z,51.70
2022-10-19T04:07:37.437Z,51.75
2022-10-19T04:07:51.554Z,51.74
2022-10-19T04:08:04.521Z,51.73
2022-10-19T04:08:21.323Z,51.68
2022-10-19T04:08:38.949Z,51.58
2022-10-19T04:08:52.308Z,51.66
2022-10-19T04:09:07.607Z,51.58
2022-10-19T04:09:22.771Z,51.51
2022-10-19T04:09:36.639Z,51.51
2022-10-19T04:10:09.534Z,51.76
2022-10-19T04:10:22.839Z,51.77
2022-10-19T04:10:36.087Z,51.70
2022-10-19T04:10:49.330Z,51.74
2022-10-19T04:11:04.403Z,51.70
2022-10-19T04:11:19.415Z,51.66
2022-10-19T04:11:52.191Z,51.89
2022-10-19T04:12:23.466Z,51.78
2022-10-19T04:12:36.796Z,51.63
2022-10-19T04:12:53.731Z,51.65
2022-10-19T04:13:06.956Z,51.93
2022-10-19T04:13:19.837Z,52.31
2022-10-19T04:13:33.380Z,52.36
2022-10-19T04:13:49.356Z,52.39
2022-10-19T04:14:02.457Z,52.45
2022-10-19T04:14:26.648Z,52.20
2022-10-19T04:14:57.636Z,52.10
2022-10-19T04:15:11.005Z,51.66
2022-10-19T04:15:23.809Z,51.66
2022-10-19T04:15:36.852Z,51.51
2022-10-19T04:15:59.329Z,51.75
2022-10-19T04:16:32.166Z,51.71
2022-10-19T04:16:45.001Z,51.42
2022-10-19T04:16:57.809Z,51.36
2022-10-19T04:17:12.544Z,51.50
2022-10-19T04:17:25.841Z,51.56
2022-10-19T04:17:38.967Z,51.55
2022-10-19T04:17:51.911Z,51.54
2022-10-19T04:18:04.715Z,51.56
2022-10-19T04:18:17.877Z,51.38
2022-10-19T04:18:30.744Z,51.25
2022-10-19T04:19:02.017Z,51.38
2022-10-19T04:19:15.964Z,51.29
2022-10-19T04:19:28.890Z,51.51
2022-10-19T04:19:42.271Z,51.40
2022-10-19T04:19:55.351Z,51.46
2022-10-19T04:20:09.225Z,51.49
2022-10-19T04:20:23.997Z,51.29
2022-10-19T04:20:38.757Z,51.47
2022-10-19T04:21:23.525Z,51.52
2022-10-19T04:21:38.097Z,51.54
2022-10-19T04:22:00.534Z,51.33
2022-10-19T04:22:31.735Z,51.29
2022-10-19T04:23:14.928Z,51.38
2022-10-19T04:23:33.532Z,51.69
2022-10-19T04:24:02.688Z,51.89
2022-10-19T04:24:17.514Z,52.09
2022-10-19T04:24:39.440Z,51.80
2022-10-19T04:24:53.754Z,51.36
2022-10-19T04:25:26.545Z,51.16
2022-10-19T04:25:40.414Z,50.96
2022-10-19T04:25:53.196Z,50.90
2022-10-19T04:26:25.956Z,51.00
2022-10-19T04:26:41.503Z,51.17
2022-10-19T04:26:54.909Z,51.30
2022-10-19T04:27:17.548Z,51.43
2022-10-19T04:27:31.005Z,51.53
2022-10-19T04:27:48.118Z,51.47
2022-10-19T04:28:01.272Z,51.46
2022-10-19T04:28:14.080Z,51.41
2022-10-19T04:28:35.979Z,51.23
2022-10-19T04:28:48.963Z,50.91
2022-10-19T04:29:02.305Z,51.01
2022-10-19T04:29:17.409Z,50.84
2022-10-19T04:29:30.884Z,50.91
2022-10-19T04:29:46.250Z,50.87
2022-10-19T04:30:01.286Z,50.78
2022-10-19T04:30:15.004Z,50.87
2022-10-19T04:30:47.797Z,50.89
2022-10-19T04:31:06.384Z,50.91
2022-10-19T04:31:19.411Z,51.14
2022-10-19T04:31:32.242Z,51.04
2022-10-19T04:32:00.755Z,50.98
2022-10-19T04:32:13.616Z,50.82
2022-10-19T04:32:26.429Z,50.89
2022-10-19T04:32:47.387Z,50.93
2022-10-19T04:33:01.057Z,51.13
2022-10-19T04:33:14.846Z,51.12
2022-10-19T04:33:33.111Z,51.50
2022-10-19T04:34:04.144Z,51.74
2022-10-19T04:34:20.875Z,51.67
2022-10-19T04:34:36.354Z,51.52
2022-10-19T04:34:52.250Z,51.51
2022-10-19T04:35:05.537Z,51.32
2022-10-19T04:35:56.962Z,51.43
2022-10-19T04:36:11.548Z,51.18
2022-10-19T04:36:24.558Z,51.58
2022-10-19T04:36:42.423Z,51.42
2022-10-19T04:36:59.376Z,51.34
2022-10-19T04:37:21.885Z,51.38
2022-10-19T04:37:53.867Z,51.71
2022-10-19T04:38:06.979Z,52.80
2022-10-19T04:38:20.655Z,53.27
2022-10-19T04:38:33.523Z,53.28
2022-10-19T04:39:06.278Z,53.12
2022-10-19T04:39:19.181Z,52.54
2022-10-19T04:39:32.018Z,52.49
2022-10-19T04:39:44.833Z,52.29
2022-10-19T04:39:57.903Z,52.13
2022-10-19T04:40:14.919Z,51.91
2022-10-19T04:40:44.108Z,51.87
2022-10-19T04:41:03.254Z,51.59
2022-10-19T04:41:18.351Z,51.53
2022-10-19T04:41:31.741Z,51.42
2022-10-19T04:41:45.138Z,51.61
2022-10-19T04:41:58.225Z,51.98
2022-10-19T04:42:11.908Z,51.92
2022-10-19T04:42:24.915Z,51.80
2022-10-19T04:42:38.059Z,51.82
2022-10-19T04:42:51.264Z,51.89
2022-10-19T04:43:05.329Z,52.04
2022-10-19T04:43:20.580Z,52.55
2022-10-19T04:43:35.741Z,52.97
2022-10-19T04:43:55.550Z,53.36
2022-10-19T04:44:18.003Z,53.37
2022-10-19T04:44:30.836Z,53.36
2022-10-19T04:45:03.751Z,53.33
2022-10-19T04:45:17.597Z,52.81
2022-10-19T04:45:39.530Z,52.62
2022-10-19T04:45:56.229Z,52.59
2022-10-19T04:46:14.804Z,52.68
2022-10-19T04:46:28.122Z,53.16
2022-10-19T04:46:41.408Z,53.52
2022-10-19T04:46:54.397Z,53.69
2022-10-19T04:47:28.643Z,53.51
2022-10-19T04:47:41.904Z,54.00
2022-10-19T04:47:56.704Z,54.08
2022-10-19T04:48:09.524Z,53.90
2022-10-19T04:48:32.043Z,54.17
2022-10-19T04:49:06.762Z,54.02
2022-10-19T04:49:20.480Z,53.72
2022-10-19T04:49:33.669Z,53.77
2022-10-19T04:49:46.537Z,54.04
2022-10-19T04:50:04.472Z,54.10
2022-10-19T04:50:38.208Z,54.21
2022-10-19T04:50:54.726Z,53.89
2022-10-19T04:51:07.685Z,53.87
2022-10-19T04:51:40.424Z,53.82
2022-10-19T04:51:53.736Z,53.72
2022-10-19T04:52:26.475Z,54.01
2022-10-19T04:52:39.451Z,53.91
2022-10-19T04:52:52.724Z,54.12
2022-10-19T04:53:06.265Z,54.21
2022-10-19T04:53:39.590Z,54.04
2022-10-19T04:54:04.183Z,53.98
2022-10-19T04:54:17.007Z,53.83
2022-10-19T04:54:34.495Z,53.75
2022-10-19T04:54:55.233Z,53.74
2022-10-19T04:55:08.605Z,53.79
2022-10-19T04:55:21.411Z,53.88
2022-10-19T04:55:35.215Z,54.11
2022-10-19T04:55:48.081Z,54.07
2022-10-19T04:56:09.532Z,53.99
2022-10-19T04:56:42.266Z,54.17
2022-10-19T04:56:55.661Z,54.13
2022-10-19T04:57:08.600Z,54.20
2022-10-19T04:57:21.718Z,54.46
2022-10-19T04:57:34.993Z,54.48
2022-10-19T04:58:30.386Z,54.48
2022-10-19T04:58:43.714Z,54.43
2022-10-19T04:58:57.527Z,54.41
2022-10-19T04:59:11.385Z,54.38
2022-10-19T04:59:24.239Z,54.40
2022-10-19T05:00:11.623Z,54.24
2022-10-19T05:00:44.429Z,54.30
2022-10-19T05:00:59.294Z,54.39
2022-10-19T05:01:21.589Z,54.30
2022-10-19T05:01:35.786Z,54.26
2022-10-19T05:02:07.160Z,54.34
2022-10-19T05:02:20.085Z,54.49
2022-10-19T05:37:49.565Z,56.88
2022-10-19T05:38:25.156Z,57.20
2022-10-19T05:39:04.091Z,56.94
2022-10-19T05:39:17.562Z,56.69
2022-10-19T05:39:30.541Z,56.86
2022-10-19T05:39:43.740Z,56.56
2022-10-19T05:40:01.504Z,56.78
2022-10-19T05:40:22.517Z,56.88
2022-10-19T05:40:38.484Z,56.99
2022-10-19T05:40:56.476Z,57.04
2022-10-19T05:41:34.501Z,56.89
2022-10-19T05:41:54.476Z,56.92
2022-10-19T05:42:07.452Z,57.00
2022-10-19T05:42:43.214Z,57.17
2022-10-19T05:42:56.823Z,56.87
2022-10-19T05:43:29.775Z,56.68
2022-10-19T05:44:08.374Z,56.58
2022-10-19T05:44:29.417Z,56.88
2022-10-19T05:44:43.215Z,56.66
2022-10-19T05:45:16.100Z,56.79
2022-10-19T05:45:29.957Z,56.76
2022-10-19T05:45:43.149Z,56.84
2022-10-19T05:46:41.375Z,56.72
2022-10-19T06:25:56.392Z,57.00
2022-10-19T06:26:11.164Z,56.87
2022-10-19T06:26:28.727Z,56.90
2022-10-19T06:27:01.477Z,57.20
2022-10-19T06:27:14.838Z,57.27
2022-10-19T06:27:28.113Z,57.17
2022-10-19T06:27:51.247Z,57.04
2022-10-19T06:28:23.962Z,57.13
2022-10-19T06:28:37.338Z,56.88
2022-10-19T06:28:51.372Z,56.86
2022-10-19T06:29:12.120Z,56.50
2022-10-19T06:29:25.025Z,56.50
2022-10-19T06:29:57.749Z,56.64
2022-10-19T06:30:11.508Z,56.33
2022-10-19T06:30:25.521Z,55.88
2022-10-19T06:30:40.579Z,55.80
2022-10-19T06:30:53.711Z,55.90
2022-10-19T06:31:09.472Z,55.98
2022-10-19T06:31:43.168Z,55.80
2022-10-19T06:32:00.434Z,56.00
2022-10-19T06:32:14.409Z,56.07
2022-10-19T06:32:29.372Z,56.19
2022-10-19T06:32:42.188Z,56.24
2022-10-19T06:32:55.448Z,56.14
2022-10-19T06:33:51.062Z,56.10
2022-10-19T06:34:04.404Z,56.27
2022-10-19T06:34:17.960Z,56.41
2022-10-19T06:34:50.828Z,56.79
2022-10-19T06:35:06.652Z,56.78
2022-10-19T06:35:19.512Z,56.57
2022-10-19T06:35:32.990Z,56.56
2022-10-19T06:35:51.200Z,56.57
2022-10-19T06:36:13.882Z,56.54
2022-10-19T06:36:29.005Z,56.55
2022-10-19T06:36:44.083Z,56.37
2022-10-19T06:36:59.202Z,56.44
2022-10-19T06:37:12.486Z,56.72
2022-10-19T06:37:26.203Z,56.57
2022-10-19T06:37:41.192Z,56.53
2022-10-19T06:37:56.430Z,56.54
2022-10-19T06:38:09.845Z,56.61
2022-10-19T06:38:27.356Z,56.43
2022-10-19T06:39:01.641Z,56.53
2022-10-19T06:39:34.303Z,56.56
2022-10-19T06:40:07.718Z,56.48
2022-10-19T06:40:24.582Z,56.33
2022-10-19T06:40:42.576Z,56.45
2022-10-19T06:41:15.378Z,56.54
2022-10-19T06:41:29.092Z,56.23
2022-10-19T06:41:42.101Z,56.08
2022-10-19T06:41:55.290Z,56.14
2022-10-19T06:42:09.630Z,56.14
2022-10-19T06:42:22.847Z,56.18
2022-10-19T06:42:39.214Z,56.19
2022-10-19T06:43:11.959Z,56.37
2022-10-19T06:43:43.557Z,56.08
2022-10-19T06:43:58.733Z,55.89
2022-10-19T06:44:11.552Z,55.88
2022-10-19T06:44:32.144Z,55.86
2022-10-19T06:45:09.099Z,55.88
2022-10-19T06:45:41.835Z,55.96
2022-10-19T06:46:09.776Z,56.10
2022-10-19T06:46:28.184Z,55.97
2022-10-19T06:46:41.310Z,56.01
2022-10-19T06:46:54.148Z,56.02
2022-10-19T06:47:09.536Z,55.96
2022-10-19T06:47:41.888Z,56.40
2022-10-19T06:48:14.694Z,56.44
2022-10-19T06:49:05.492Z,56.29
2022-10-19T06:49:19.514Z,56.30
2022-10-19T06:49:35.879Z,56.15
2022-10-19T06:49:48.801Z,56.26
2022-10-19T06:50:21.639Z,56.35
2022-10-19T06:50:35.381Z,56.42
2022-10-19T06:50:58.977Z,56.62
2022-10-19T06:51:13.748Z,56.53
2022-10-19T06:51:27.484Z,56.42
2022-10-19T06:51:40.732Z,56.27
2022-10-19T07:13:37.076Z,55.28
2022-10-19T07:13:50.108Z,55.39
2022-10-19T07:14:12.671Z,55.35
2022-10-19T07:14:29.404Z,55.37
2022-10-19T07:14:52.318Z,55.31
2022-10-19T07:15:25.080Z,55.27
2022-10-19T07:15:39.028Z,55.29
2022-10-19T07:15:59.686Z,55.34
2022-10-19T07:16:17.602Z,55.33
2022-10-19T07:16:46.849Z,55.25
2022-10-19T07:17:05.070Z,55.24
2022-10-19T07:17:18.101Z,55.24
2022-10-19T07:17:32.058Z,55.35
2022-10-19T07:17:45.538Z,55.24
2022-10-19T07:18:18.325Z,55.22
2022-10-19T07:18:51.968Z,55.40
2022-10-19T07:19:05.939Z,55.26
2022-10-19T07:19:19.025Z,55.21
2022-10-19T07:19:53.738Z,55.06
2022-10-19T07:20:26.465Z,55.17
2022-10-19T07:21:00.775Z,55.12
2022-10-19T07:21:15.441Z,55.01
2022-10-19T07:21:41.604Z,55.03
2022-10-19T07:22:18.629Z,55.12
2022-10-19T07:31:52.676Z,55.25
2022-10-19T07:32:25.469Z,55.19
2022-10-19T07:32:58.243Z,55.19
2022-10-19T08:02:14.875Z,54.63
2022-10-19T08:02:57.786Z,54.54
2022-10-19T08:04:43.286Z,54.30
2022-10-19T08:05:03.093Z,54.14
2022-10-19T08:05:33.632Z,54.05
2022-10-19T08:05:46.917Z,53.93
2022-10-19T08:06:01.620Z,53.96
2022-10-19T08:06:16.739Z,53.96
2022-10-19T08:06:31.661Z,53.96
2022-10-19T08:06:44.619Z,53.99
2022-10-19T08:06:59.874Z,53.95
2022-10-19T08:07:13.825Z,53.91
2022-10-19T08:07:27.619Z,53.92
2022-10-19T08:07:56.738Z,53.88
2022-10-19T08:08:10.236Z,53.81
2022-10-19T08:08:43.343Z,53.83
2022-10-19T08:09:40.001Z,53.80
2022-10-19T08:09:53.205Z,53.85
2022-10-19T08:10:15.941Z,53.92
2022-10-19T08:10:29.951Z,53.91
2022-10-19T08:10:43.206Z,53.79
2022-10-19T08:10:58.176Z,53.72
2022-10-19T08:11:13.835Z,53.66
2022-10-19T08:11:32.120Z,53.74
2022-10-19T08:12:05.814Z,53.80
2022-10-19T08:12:19.302Z,54.01
2022-10-19T08:12:40.272Z,53.95
2022-10-19T08:12:53.314Z,53.89
2022-10-19T08:13:14.861Z,53.95
2022-10-19T08:13:27.885Z,53.80
2022-10-19T08:14:02.826Z,53.68
2022-10-19T08:14:15.668Z,53.61
2022-10-19T08:14:48.917Z,53.57
2022-10-19T08:15:07.034Z,53.69
2022-10-19T08:15:29.388Z,53.57
2022-10-19T08:15:42.692Z,53.66
2022-10-19T08:15:56.115Z,53.73
2022-10-19T08:16:37.456Z,53.77
2022-10-19T08:16:51.259Z,53.77
2022-10-19T08:17:16.582Z,53.73
2022-10-19T08:17:39.771Z,53.79